sensor_id;sensor_type;location;lat;lon;timestamp;pressure;altitude;pressure_sealevel;temperature;humidity
1832;BME280;1680;48.106;11.708;2023-04-01T00:01:53;94342.41;;;9.07;93.13
1832;BME280;1680;48.106;11.708;2023-04-01T00:04:20;94340.94;;;8.94;93.31
1832;BME280;1680;48.106;11.708;2023-04-01T00:06:47;94331.97;;;8.90;94.16
1832;BME280;1680;48.106;11.708;2023-04-01T00:09:16;94330.41;;;8.89;94.64
1832;BME280;1680;48.106;11.708;2023-04-01T00:11:43;94328.25;;;8.86;95.06
1832;BME280;1680;48.106;11.708;2023-04-01T00:14:11;94271.50;;;8.44;94.91
1832;BME280;1680;48.106;11.708;2023-04-01T00:16:38;94327.00;;;8.89;95.60
1832;BME280;1680;48.106;11.708;2023-04-01T00:19:06;94321.44;;;8.85;95.58
1832;BME280;1680;48.106;11.708;2023-04-01T00:21:33;94331.13;;;8.85;95.78
1832;BME280;1680;48.106;11.708;2023-04-01T00:24:02;94315.91;;;8.82;96.34
1832;BME280;1680;48.106;11.708;2023-04-01T00:26:31;94312.75;;;8.80;95.81
1832;BME280;1680;48.106;11.708;2023-04-01T00:28:58;94305.00;;;8.85;95.34
1832;BME280;1680;48.106;11.708;2023-04-01T00:31:26;94309.09;;;8.81;95.42
1832;BME280;1680;48.106;11.708;2023-04-01T00:33:53;94310.13;;;8.80;96.13
1832;BME280;1680;48.106;11.708;2023-04-01T00:36:21;94297.06;;;8.80;95.83
1832;BME280;1680;48.106;11.708;2023-04-01T00:38:49;94293.84;;;8.73;96.38
1832;BME280;1680;48.106;11.708;2023-04-01T00:41:17;94305.91;;;8.74;96.39
1832;BME280;1680;48.106;11.708;2023-04-01T00:43:49;94303.28;;;8.74;96.37
1832;BME280;1680;48.106;11.708;2023-04-01T00:46:17;94314.75;;;8.73;96.46
1832;BME280;1680;48.106;11.708;2023-04-01T00:48:47;94312.16;;;8.73;96.18
1832;BME280;1680;48.106;11.708;2023-04-01T00:51:17;94308.44;;;8.69;96.11
1832;BME280;1680;48.106;11.708;2023-04-01T00:53:48;94250.69;;;8.33;96.23
1832;BME280;1680;48.106;11.708;2023-04-01T00:56:19;94234.75;;;8.34;95.75
1832;BME280;1680;48.106;11.708;2023-04-01T00:58:51;94303.75;;;8.71;95.64
1832;BME280;1680;48.106;11.708;2023-04-01T01:01:23;94303.13;;;8.64;96.06
1832;BME280;1680;48.106;11.708;2023-04-01T01:03:52;94305.25;;;8.67;95.69
1832;BME280;1680;48.106;11.708;2023-04-01T01:06:26;94305.34;;;8.72;96.58
1832;BME280;1680;48.106;11.708;2023-04-01T01:09:10;94303.41;;;8.84;95.74
1832;BME280;1680;48.106;11.708;2023-04-01T01:11:42;94249.50;;;8.40;95.61
1832;BME280;1680;48.106;11.708;2023-04-01T01:14:19;94307.47;;;8.75;96.26
1832;BME280;1680;48.106;11.708;2023-04-01T01:16:51;94304.19;;;8.84;95.51
1832;BME280;1680;48.106;11.708;2023-04-01T01:19:39;94303.41;;;8.84;95.11
1832;BME280;1680;48.106;11.708;2023-04-01T01:22:41;94304.19;;;8.84;95.00
1832;BME280;1680;48.106;11.708;2023-04-01T01:25:30;94301.03;;;8.82;95.26
1832;BME280;1680;48.106;11.708;2023-04-01T01:28:11;94311.81;;;8.86;95.17
1832;BME280;1680;48.106;11.708;2023-04-01T01:30:47;94300.72;;;8.79;96.26
1832;BME280;1680;48.106;11.708;2023-04-01T01:33:25;94306.88;;;8.89;94.53
1832;BME280;1680;48.106;11.708;2023-04-01T01:35:59;94298.00;;;8.90;94.12
1832;BME280;1680;48.106;11.708;2023-04-01T01:38:31;94306.16;;;8.94;94.58
1832;BME280;1680;48.106;11.708;2023-04-01T01:41:00;94306.16;;;8.94;93.43
1832;BME280;1680;48.106;11.708;2023-04-01T01:43:32;94311.00;;;8.85;94.29
1832;BME280;1680;48.106;11.708;2023-04-01T01:46:03;94305.66;;;8.97;93.17
1832;BME280;1680;48.106;11.708;2023-04-01T01:48:34;94304.81;;;8.91;93.78
1832;BME280;1680;48.106;11.708;2023-04-01T01:51:03;94291.50;;;8.93;93.77
1832;BME280;1680;48.106;11.708;2023-04-01T01:53:31;94289.56;;;8.83;95.31
1832;BME280;1680;48.106;11.708;2023-04-01T01:55:59;94293.25;;;8.87;94.22
1832;BME280;1680;48.106;11.708;2023-04-01T01:58:30;94292.16;;;8.83;94.69
1832;BME280;1680;48.106;11.708;2023-04-01T02:01:02;94285.19;;;8.89;94.47
1832;BME280;1680;48.106;11.708;2023-04-01T02:03:34;94289.78;;;8.82;94.90
1832;BME280;1680;48.106;11.708;2023-04-01T02:06:06;94289.72;;;8.77;95.28
1832;BME280;1680;48.106;11.708;2023-04-01T02:08:37;94286.63;;;8.80;95.08
1832;BME280;1680;48.106;11.708;2023-04-01T02:11:08;94294.53;;;8.85;94.33
1832;BME280;1680;48.106;11.708;2023-04-01T02:13:40;94308.75;;;8.94;93.92
1832;BME280;1680;48.106;11.708;2023-04-01T02:16:12;94312.41;;;8.93;94.17
1832;BME280;1680;48.106;11.708;2023-04-01T02:18:42;94318.06;;;8.85;94.38
1832;BME280;1680;48.106;11.708;2023-04-01T02:21:13;94317.59;;;8.88;94.29
1832;BME280;1680;48.106;11.708;2023-04-01T02:23:42;94316.19;;;8.80;93.86
1832;BME280;1680;48.106;11.708;2023-04-01T02:26:11;94313.09;;;8.83;93.95
1832;BME280;1680;48.106;11.708;2023-04-01T02:28:40;94320.03;;;8.78;93.84
1832;BME280;1680;48.106;11.708;2023-04-01T02:31:10;94314.13;;;8.82;94.05
1832;BME280;1680;48.106;11.708;2023-04-01T02:33:39;94308.72;;;8.89;93.04
1832;BME280;1680;48.106;11.708;2023-04-01T02:36:12;94327.88;;;8.78;93.17
1832;BME280;1680;48.106;11.708;2023-04-01T02:38:40;94303.31;;;8.79;92.65
1832;BME280;1680;48.106;11.708;2023-04-01T02:41:08;94297.53;;;8.77;92.66
1832;BME280;1680;48.106;11.708;2023-04-01T02:43:35;94298.59;;;8.76;93.05
1832;BME280;1680;48.106;11.708;2023-04-01T02:46:03;94304.59;;;8.76;92.69
1832;BME280;1680;48.106;11.708;2023-04-01T02:48:30;94309.53;;;8.73;93.25
1832;BME280;1680;48.106;11.708;2023-04-01T02:50:58;94316.66;;;8.77;92.68
1832;BME280;1680;48.106;11.708;2023-04-01T02:53:26;94314.81;;;8.78;92.45
1832;BME280;1680;48.106;11.708;2023-04-01T02:55:54;94324.31;;;8.84;91.99
1832;BME280;1680;48.106;11.708;2023-04-01T02:58:21;94328.13;;;8.76;92.32
1832;BME280;1680;48.106;11.708;2023-04-01T03:00:48;94311.97;;;8.79;91.96
1832;BME280;1680;48.106;11.708;2023-04-01T03:03:15;94331.53;;;8.77;92.95
1832;BME280;1680;48.106;11.708;2023-04-01T03:05:42;94327.03;;;8.72;92.69
1832;BME280;1680;48.106;11.708;2023-04-01T03:08:10;94330.03;;;8.81;92.53
1832;BME280;1680;48.106;11.708;2023-04-01T03:10:39;94324.41;;;8.89;91.71
1832;BME280;1680;48.106;11.708;2023-04-01T03:13:06;94328.59;;;8.90;90.92
1832;BME280;1680;48.106;11.708;2023-04-01T03:15:33;94321.88;;;8.77;92.35
1832;BME280;1680;48.106;11.708;2023-04-01T03:18:01;94327.88;;;8.78;91.15
1832;BME280;1680;48.106;11.708;2023-04-01T03:20:30;94325.25;;;8.78;90.42
1832;BME280;1680;48.106;11.708;2023-04-01T03:22:57;94332.72;;;8.86;90.90
1832;BME280;1680;48.106;11.708;2023-04-01T03:25:24;94339.38;;;8.77;91.27
1832;BME280;1680;48.106;11.708;2023-04-01T03:27:55;94328.31;;;8.70;92.57
1832;BME280;1680;48.106;11.708;2023-04-01T03:30:25;94324.09;;;8.69;93.27
1832;BME280;1680;48.106;11.708;2023-04-01T03:32:52;94340.25;;;8.66;92.53
1832;BME280;1680;48.106;11.708;2023-04-01T03:35:19;94339.63;;;8.75;92.38
1832;BME280;1680;48.106;11.708;2023-04-01T03:37:47;94336.41;;;8.68;91.68
1832;BME280;1680;48.106;11.708;2023-04-01T03:40:14;94347.78;;;8.63;91.85
1832;BME280;1680;48.106;11.708;2023-04-01T03:42:42;94350.56;;;8.56;91.11
1832;BME280;1680;48.106;11.708;2023-04-01T03:45:11;94349.63;;;8.46;92.22
1832;BME280;1680;48.106;11.708;2023-04-01T03:47:39;94289.34;;;8.03;92.50
1832;BME280;1680;48.106;11.708;2023-04-01T03:50:07;94352.38;;;8.39;92.77
1832;BME280;1680;48.106;11.708;2023-04-01T03:52:35;94348.75;;;8.40;93.41
1832;BME280;1680;48.106;11.708;2023-04-01T03:55:03;94359.81;;;8.47;92.46
1832;BME280;1680;48.106;11.708;2023-04-01T03:57:30;94353.97;;;8.40;92.69
1832;BME280;1680;48.106;11.708;2023-04-01T03:59:58;94362.50;;;8.52;92.04
1832;BME280;1680;48.106;11.708;2023-04-01T04:02:26;94347.66;;;8.53;93.01
1832;BME280;1680;48.106;11.708;2023-04-01T04:04:54;94361.66;;;8.47;92.75
1832;BME280;1680;48.106;11.708;2023-04-01T04:07:21;94356.97;;;8.49;92.65
1832;BME280;1680;48.106;11.708;2023-04-01T04:09:50;94352.94;;;8.41;93.53
1832;BME280;1680;48.106;11.708;2023-04-01T04:12:17;94349.53;;;8.41;93.53
1832;BME280;1680;48.106;11.708;2023-04-01T04:14:44;94352.94;;;8.41;93.45
1832;BME280;1680;48.106;11.708;2023-04-01T04:17:11;94354.59;;;8.31;93.61
1832;BME280;1680;48.106;11.708;2023-04-01T04:19:43;94362.13;;;8.27;94.31
1832;BME280;1680;48.106;11.708;2023-04-01T04:22:10;94353.56;;;8.32;94.49
1832;BME280;1680;48.106;11.708;2023-04-01T04:24:38;94359.31;;;8.17;95.97
1832;BME280;1680;48.106;11.708;2023-04-01T04:27:05;94359.56;;;8.16;95.08
1832;BME280;1680;48.106;11.708;2023-04-01T04:29:32;94357.38;;;8.24;95.51
1832;BME280;1680;48.106;11.708;2023-04-01T04:31:59;94359.41;;;8.22;95.31
1832;BME280;1680;48.106;11.708;2023-04-01T04:34:27;94361.25;;;8.38;95.55
1832;BME280;1680;48.106;11.708;2023-04-01T04:36:55;94358.31;;;8.35;95.20
1832;BME280;1680;48.106;11.708;2023-04-01T04:39:22;94361.56;;;8.42;95.18
1832;BME280;1680;48.106;11.708;2023-04-01T04:41:50;94371.59;;;8.33;96.12
1832;BME280;1680;48.106;11.708;2023-04-01T04:44:17;94366.94;;;8.35;95.17
1832;BME280;1680;48.106;11.708;2023-04-01T04:46:44;94373.19;;;8.34;95.31
1832;BME280;1680;48.106;11.708;2023-04-01T04:49:11;94375.66;;;8.24;95.87
1832;BME280;1680;48.106;11.708;2023-04-01T04:51:39;94375.09;;;8.22;95.48
1832;BME280;1680;48.106;11.708;2023-04-01T04:54:07;94373.69;;;8.31;96.50
1832;BME280;1680;48.106;11.708;2023-04-01T04:56:35;94371.78;;;8.43;97.31
1832;BME280;1680;48.106;11.708;2023-04-01T04:59:02;94377.00;;;8.43;95.64
1832;BME280;1680;48.106;11.708;2023-04-01T05:01:29;94375.75;;;8.46;96.85
1832;BME280;1680;48.106;11.708;2023-04-01T05:03:58;94376.16;;;8.38;95.17
1832;BME280;1680;48.106;11.708;2023-04-01T05:06:26;94377.56;;;8.45;95.42
1832;BME280;1680;48.106;11.708;2023-04-01T05:08:55;94377.94;;;8.37;96.06
1832;BME280;1680;48.106;11.708;2023-04-01T05:11:24;94372.34;;;8.45;95.82
1832;BME280;1680;48.106;11.708;2023-04-01T05:13:52;94379.94;;;8.47;95.17
1832;BME280;1680;48.106;11.708;2023-04-01T05:16:20;94373.22;;;8.51;95.35
1832;BME280;1680;48.106;11.708;2023-04-01T05:18:48;94378.50;;;8.56;93.59
1832;BME280;1680;48.106;11.708;2023-04-01T05:21:15;94378.84;;;8.59;94.24
1832;BME280;1680;48.106;11.708;2023-04-01T05:23:42;94373.28;;;8.56;93.07
1832;BME280;1680;48.106;11.708;2023-04-01T05:26:12;94372.63;;;8.65;92.57
1832;BME280;1680;48.106;11.708;2023-04-01T05:28:41;94372.09;;;8.63;92.26
1832;BME280;1680;48.106;11.708;2023-04-01T05:31:09;94370.03;;;8.65;91.81
1832;BME280;1680;48.106;11.708;2023-04-01T05:33:36;94375.03;;;8.67;92.21
1832;BME280;1680;48.106;11.708;2023-04-01T05:36:08;94378.66;;;8.82;90.82
1832;BME280;1680;48.106;11.708;2023-04-01T05:38:36;94384.28;;;8.74;91.69
1832;BME280;1680;48.106;11.708;2023-04-01T05:41:04;94381.81;;;8.84;90.00
1832;BME280;1680;48.106;11.708;2023-04-01T05:43:35;94376.72;;;8.94;89.13
1832;BME280;1680;48.106;11.708;2023-04-01T05:46:04;94381.91;;;8.89;89.44
1832;BME280;1680;48.106;11.708;2023-04-01T05:48:32;94376.13;;;8.87;88.58
1832;BME280;1680;48.106;11.708;2023-04-01T05:51:00;94386.63;;;8.92;87.19
1832;BME280;1680;48.106;11.708;2023-04-01T05:53:27;94389.09;;;8.98;88.51
1832;BME280;1680;48.106;11.708;2023-04-01T05:55:54;94380.38;;;8.93;88.09
1832;BME280;1680;48.106;11.708;2023-04-01T05:58:22;94377.84;;;8.98;87.99
1832;BME280;1680;48.106;11.708;2023-04-01T06:00:49;94317.75;;;8.65;87.49
1832;BME280;1680;48.106;11.708;2023-04-01T06:03:17;94380.06;;;9.06;87.85
1832;BME280;1680;48.106;11.708;2023-04-01T06:05:45;94374.88;;;9.11;86.66
1832;BME280;1680;48.106;11.708;2023-04-01T06:08:13;94380.50;;;9.19;85.85
1832;BME280;1680;48.106;11.708;2023-04-01T06:10:52;94377.78;;;9.14;86.66
1832;BME280;1680;48.106;11.708;2023-04-01T06:13:34;94384.13;;;9.18;85.57
1832;BME280;1680;48.106;11.708;2023-04-01T06:16:13;94378.72;;;9.25;85.89
1832;BME280;1680;48.106;11.708;2023-04-01T06:19:02;94380.63;;;9.29;84.87
1832;BME280;1680;48.106;11.708;2023-04-01T06:22:02;94387.25;;;9.37;84.68
1832;BME280;1680;48.106;11.708;2023-04-01T06:24:52;94384.97;;;9.40;84.71
1832;BME280;1680;48.106;11.708;2023-04-01T06:27:36;94386.94;;;9.33;84.22
1832;BME280;1680;48.106;11.708;2023-04-01T06:30:24;94391.72;;;9.36;82.58
1832;BME280;1680;48.106;11.708;2023-04-01T06:33:07;94381.53;;;9.40;82.93
1832;BME280;1680;48.106;11.708;2023-04-01T06:35:59;94381.19;;;9.53;81.89
1832;BME280;1680;48.106;11.708;2023-04-01T06:38:52;94387.75;;;9.34;82.61
1832;BME280;1680;48.106;11.708;2023-04-01T06:41:33;94383.28;;;9.51;81.48
1832;BME280;1680;48.106;11.708;2023-04-01T06:44:13;94386.41;;;9.53;81.95
1832;BME280;1680;48.106;11.708;2023-04-01T06:46:45;94390.97;;;9.62;81.86
1832;BME280;1680;48.106;11.708;2023-04-01T06:49:28;94390.78;;;9.68;80.47
1832;BME280;1680;48.106;11.708;2023-04-01T06:52:08;94396.53;;;9.65;80.11
1832;BME280;1680;48.106;11.708;2023-04-01T06:54:41;94383.97;;;9.67;80.82
1832;BME280;1680;48.106;11.708;2023-04-01T06:57:19;94389.09;;;9.58;81.10
1832;BME280;1680;48.106;11.708;2023-04-01T06:59:48;94381.63;;;9.66;80.94
1832;BME280;1680;48.106;11.708;2023-04-01T07:02:23;94381.78;;;9.60;80.45
1832;BME280;1680;48.106;11.708;2023-04-01T07:04:53;94380.84;;;9.65;80.48
1832;BME280;1680;48.106;11.708;2023-04-01T07:07:31;94397.22;;;9.82;79.17
1832;BME280;1680;48.106;11.708;2023-04-01T07:10:04;94389.09;;;9.79;78.54
1832;BME280;1680;48.106;11.708;2023-04-01T07:12:39;94383.47;;;9.92;78.12
1832;BME280;1680;48.106;11.708;2023-04-01T07:15:17;94390.97;;;10.05;78.17
1832;BME280;1680;48.106;11.708;2023-04-01T07:17:48;94387.03;;;10.29;77.88
1832;BME280;1680;48.106;11.708;2023-04-01T07:20:22;94407.50;;;10.32;76.58
1832;BME280;1680;48.106;11.708;2023-04-01T07:22:55;94395.13;;;10.27;76.56
1832;BME280;1680;48.106;11.708;2023-04-01T07:25:26;94401.66;;;10.25;75.93
1832;BME280;1680;48.106;11.708;2023-04-01T07:27:58;94392.56;;;10.32;75.56
1832;BME280;1680;48.106;11.708;2023-04-01T07:30:46;94392.56;;;10.32;74.83
1832;BME280;1680;48.106;11.708;2023-04-01T07:33:16;94391.03;;;10.36;75.01
1832;BME280;1680;48.106;11.708;2023-04-01T07:35:52;94387.94;;;10.44;76.66
1832;BME280;1680;48.106;11.708;2023-04-01T07:38:28;94394.66;;;10.62;74.51
1832;BME280;1680;48.106;11.708;2023-04-01T07:41:05;94395.72;;;10.61;74.68
1832;BME280;1680;48.106;11.708;2023-04-01T07:43:48;94389.59;;;10.50;75.93
1832;BME280;1680;48.106;11.708;2023-04-01T07:46:32;94401.03;;;10.44;75.00
1832;BME280;1680;48.106;11.708;2023-04-01T07:49:10;94388.06;;;10.59;74.36
1832;BME280;1680;48.106;11.708;2023-04-01T07:51:44;94400.81;;;10.77;75.42
1832;BME280;1680;48.106;11.708;2023-04-01T07:54:22;94400.50;;;11.05;73.05
1832;BME280;1680;48.106;11.708;2023-04-01T07:56:59;94400.09;;;11.23;72.71
1832;BME280;1680;48.106;11.708;2023-04-01T07:59:34;94400.09;;;11.23;72.08
1832;BME280;1680;48.106;11.708;2023-04-01T08:02:08;94423.75;;;11.28;72.54
1832;BME280;1680;48.106;11.708;2023-04-01T08:04:52;94395.34;;;11.20;71.60
1832;BME280;1680;48.106;11.708;2023-04-01T08:07:22;94402.66;;;11.13;71.72
1832;BME280;1680;48.106;11.708;2023-04-01T08:09:56;94404.97;;;11.09;71.97
1832;BME280;1680;48.106;11.708;2023-04-01T08:12:35;94407.91;;;11.18;71.60
1832;BME280;1680;48.106;11.708;2023-04-01T08:15:16;94410.91;;;11.31;71.54
1832;BME280;1680;48.106;11.708;2023-04-01T08:17:58;94393.38;;;11.47;72.13
1832;BME280;1680;48.106;11.708;2023-04-01T08:20:32;94395.59;;;11.60;71.36
1832;BME280;1680;48.106;11.708;2023-04-01T08:23:06;94401.91;;;11.63;70.07
1832;BME280;1680;48.106;11.708;2023-04-01T08:25:40;94396.66;;;11.59;69.66
1832;BME280;1680;48.106;11.708;2023-04-01T08:28:17;94401.13;;;11.63;70.93
1832;BME280;1680;48.106;11.708;2023-04-01T08:30:49;94399.31;;;11.68;69.44
1832;BME280;1680;48.106;11.708;2023-04-01T08:33:23;94393.56;;;11.76;68.73
1832;BME280;1680;48.106;11.708;2023-04-01T08:35:55;94396.97;;;11.72;68.61
1832;BME280;1680;48.106;11.708;2023-04-01T08:38:28;94379.91;;;11.74;69.23
1832;BME280;1680;48.106;11.708;2023-04-01T08:41:10;94393.59;;;11.81;68.50
1832;BME280;1680;48.106;11.708;2023-04-01T08:47:06;94384.69;;;11.92;67.08
1832;BME280;1680;48.106;11.708;2023-04-01T08:50:02;94384.94;;;11.86;67.13
1832;BME280;1680;48.106;11.708;2023-04-01T08:52:36;94377.22;;;11.64;67.29
1832;BME280;1680;48.106;11.708;2023-04-01T08:55:23;94384.19;;;12.00;67.41
1832;BME280;1680;48.106;11.708;2023-04-01T08:58:06;94380.59;;;12.31;66.66
1832;BME280;1680;48.106;11.708;2023-04-01T09:00:46;94394.78;;;12.30;64.92
1832;BME280;1680;48.106;11.708;2023-04-01T09:03:37;94386.09;;;12.20;66.35
1832;BME280;1680;48.106;11.708;2023-04-01T09:06:33;94383.78;;;12.48;65.43
1832;BME280;1680;48.106;11.708;2023-04-01T09:09:26;94388.00;;;12.49;64.92
1832;BME280;1680;48.106;11.708;2023-04-01T09:12:19;94383.78;;;12.68;65.04
1832;BME280;1680;48.106;11.708;2023-04-01T09:15:12;94374.31;;;12.67;63.51
1832;BME280;1680;48.106;11.708;2023-04-01T09:18:12;94379.28;;;12.58;63.07
1832;BME280;1680;48.106;11.708;2023-04-01T09:20:46;94375.09;;;12.38;64.23
1832;BME280;1680;48.106;11.708;2023-04-01T09:23:28;94370.88;;;12.42;63.56
1832;BME280;1680;48.106;11.708;2023-04-01T09:26:21;94371.97;;;12.70;62.78
1832;BME280;1680;48.106;11.708;2023-04-01T09:28:59;94370.09;;;12.86;62.71
1832;BME280;1680;48.106;11.708;2023-04-01T09:31:46;94367.50;;;12.91;63.42
1832;BME280;1680;48.106;11.708;2023-04-01T09:37:34;94360.63;;;13.20;61.25
1832;BME280;1680;48.106;11.708;2023-04-01T09:40:18;94361.16;;;13.02;61.56
1832;BME280;1680;48.106;11.708;2023-04-01T09:43:04;94345.88;;;12.84;62.48
1832;BME280;1680;48.106;11.708;2023-04-01T09:45:48;94341.69;;;12.98;61.81
1832;BME280;1680;48.106;11.708;2023-04-01T09:48:37;94348.53;;;12.99;60.96
1832;BME280;1680;48.106;11.708;2023-04-01T09:51:22;94351.13;;;13.19;61.53
1832;BME280;1680;48.106;11.708;2023-04-01T09:54:02;94337.72;;;13.15;60.23
1832;BME280;1680;48.106;11.708;2023-04-01T09:56:52;94342.72;;;13.17;60.28
1832;BME280;1680;48.106;11.708;2023-04-01T10:06:13;94341.13;;;13.21;60.31
1832;BME280;1680;48.106;11.708;2023-04-01T10:09:14;94330.09;;;13.14;59.76
1832;BME280;1680;48.106;11.708;2023-04-01T10:21:23;94335.53;;;13.42;60.84
1832;BME280;1680;48.106;11.708;2023-04-01T10:27:09;94322.09;;;13.54;59.04
1832;BME280;1680;48.106;11.708;2023-04-01T10:29:59;94322.09;;;13.44;59.22
1832;BME280;1680;48.106;11.708;2023-04-01T10:36:14;94324.16;;;13.56;59.80
1832;BME280;1680;48.106;11.708;2023-04-01T10:39:19;94341.00;;;13.65;58.59
1832;BME280;1680;48.106;11.708;2023-04-01T10:42:30;94329.34;;;13.76;58.48
1832;BME280;1680;48.106;11.708;2023-04-01T10:51:40;94332.56;;;13.63;59.07
1832;BME280;1680;48.106;11.708;2023-04-01T10:54:20;94329.41;;;13.61;58.69
1832;BME280;1680;48.106;11.708;2023-04-01T10:56:55;94332.44;;;13.25;59.50
1832;BME280;1680;48.106;11.708;2023-04-01T10:59:42;94328.78;;;13.06;59.90
1832;BME280;1680;48.106;11.708;2023-04-01T11:09:08;94328.03;;;12.76;63.18
1832;BME280;1680;48.106;11.708;2023-04-01T11:12:24;94351.72;;;12.81;62.77
1832;BME280;1680;48.106;11.708;2023-04-01T11:21:46;94354.84;;;12.73;65.36
1832;BME280;1680;48.106;11.708;2023-04-01T11:24:56;94346.41;;;12.51;65.95
1832;BME280;1680;48.106;11.708;2023-04-01T11:27:45;94352.22;;;12.58;66.90
1832;BME280;1680;48.106;11.708;2023-04-01T11:30:24;94358.81;;;12.70;66.63
1832;BME280;1680;48.106;11.708;2023-04-01T11:32:59;94305.41;;;12.25;66.79
1832;BME280;1680;48.106;11.708;2023-04-01T11:35:51;94366.94;;;12.49;67.75
1832;BME280;1680;48.106;11.708;2023-04-01T11:38:34;94361.16;;;12.47;66.36
1832;BME280;1680;48.106;11.708;2023-04-01T11:41:17;94372.72;;;12.41;67.37
1832;BME280;1680;48.106;11.708;2023-04-01T11:43:55;94379.00;;;12.30;68.17
1832;BME280;1680;48.106;11.708;2023-04-01T11:46:30;94371.34;;;12.14;69.25
1832;BME280;1680;48.106;11.708;2023-04-01T11:49:14;94375.06;;;12.33;69.65
1832;BME280;1680;48.106;11.708;2023-04-01T11:52:03;94380.34;;;12.43;70.15
1832;BME280;1680;48.106;11.708;2023-04-01T11:54:51;94382.94;;;12.23;72.59
1832;BME280;1680;48.106;11.708;2023-04-01T11:57:42;94397.81;;;11.87;77.43
1832;BME280;1680;48.106;11.708;2023-04-01T12:00:32;94401.72;;;11.34;81.91
1832;BME280;1680;48.106;11.708;2023-04-01T12:03:18;94410.63;;;11.33;82.09
1832;BME280;1680;48.106;11.708;2023-04-01T12:05:54;94414.00;;;11.23;86.49
1832;BME280;1680;48.106;11.708;2023-04-01T12:08:33;94422.16;;;11.27;87.64
1832;BME280;1680;48.106;11.708;2023-04-01T12:11:10;94406.72;;;10.94;85.27
1832;BME280;1680;48.106;11.708;2023-04-01T12:13:48;94425.56;;;10.86;88.14
1832;BME280;1680;48.106;11.708;2023-04-01T12:16:26;94414.13;;;10.70;88.00
1832;BME280;1680;48.106;11.708;2023-04-01T12:19:01;94415.94;;;10.65;90.19
1832;BME280;1680;48.106;11.708;2023-04-01T12:21:36;94406.56;;;10.74;90.37
1832;BME280;1680;48.106;11.708;2023-04-01T12:24:29;94406.56;;;10.74;91.24
1832;BME280;1680;48.106;11.708;2023-04-01T12:27:10;94417.56;;;10.71;91.16
1832;BME280;1680;48.106;11.708;2023-04-01T12:35:53;94415.13;;;10.64;92.49
1832;BME280;1680;48.106;11.708;2023-04-01T12:38:31;94410.06;;;10.53;98.27
1832;BME280;1680;48.106;11.708;2023-04-01T12:41:09;94409.03;;;10.59;96.47
1832;BME280;1680;48.106;11.708;2023-04-01T12:47:19;94407.78;;;10.35;97.03
1832;BME280;1680;48.106;11.708;2023-04-01T12:50:06;94404.53;;;10.23;99.89
1832;BME280;1680;48.106;11.708;2023-04-01T12:52:50;94407.69;;;10.25;98.99
1832;BME280;1680;48.106;11.708;2023-04-01T12:55:35;94405.25;;;9.97;98.74
1832;BME280;1680;48.106;11.708;2023-04-01T12:58:18;94405.25;;;9.97;100.00
1832;BME280;1680;48.106;11.708;2023-04-01T13:01:11;94416.66;;;9.86;100.00
1832;BME280;1680;48.106;11.708;2023-04-01T13:04:00;94406.13;;;9.81;100.00
1832;BME280;1680;48.106;11.708;2023-04-01T13:06:52;94412.66;;;9.79;100.00
1832;BME280;1680;48.106;11.708;2023-04-01T13:09:36;94415.19;;;9.74;100.00
1832;BME280;1680;48.106;11.708;2023-04-01T13:12:20;94416.56;;;9.76;100.00
1832;BME280;1680;48.106;11.708;2023-04-01T13:15:11;94413.75;;;9.83;100.00
1832;BME280;1680;48.106;11.708;2023-04-01T13:17:45;94422.38;;;9.83;100.00
1832;BME280;1680;48.106;11.708;2023-04-01T13:20:23;94407.91;;;9.76;100.00
1832;BME280;1680;48.106;11.708;2023-04-01T13:23:04;94420.50;;;9.79;100.00
1832;BME280;1680;48.106;11.708;2023-04-01T13:25:39;94423.84;;;9.96;99.78
1832;BME280;1680;48.106;11.708;2023-04-01T13:28:15;94418.75;;;10.06;99.96
1832;BME280;1680;48.106;11.708;2023-04-01T13:30:50;94417.31;;;9.98;97.85
1832;BME280;1680;48.106;11.708;2023-04-01T13:33:26;94422.94;;;10.07;99.76
1832;BME280;1680;48.106;11.708;2023-04-01T13:36:08;94431.44;;;9.97;100.00
1832;BME280;1680;48.106;11.708;2023-04-01T13:42:11;94428.66;;;9.82;97.49
1832;BME280;1680;48.106;11.708;2023-04-01T13:44:49;94443.94;;;9.69;97.26
1832;BME280;1680;48.106;11.708;2023-04-01T13:47:37;94446.94;;;9.77;97.01
1832;BME280;1680;48.106;11.708;2023-04-01T13:50:32;94443.28;;;9.78;98.93
1832;BME280;1680;48.106;11.708;2023-04-01T13:56:24;94426.84;;;9.83;98.57
1832;BME280;1680;48.106;11.708;2023-04-01T13:59:16;94440.44;;;10.01;96.59
1832;BME280;1680;48.106;11.708;2023-04-01T14:01:53;94435.00;;;9.86;97.62
1832;BME280;1680;48.106;11.708;2023-04-01T14:04:47;94427.41;;;9.85;96.46
1832;BME280;1680;48.106;11.708;2023-04-01T14:07:28;94418.88;;;9.94;98.11
1832;BME280;1680;48.106;11.708;2023-04-01T14:10:06;94427.75;;;10.15;96.08
1832;BME280;1680;48.106;11.708;2023-04-01T14:12:40;94423.75;;;10.07;97.33
1832;BME280;1680;48.106;11.708;2023-04-01T14:15:33;94419.84;;;10.36;95.72
1832;BME280;1680;48.106;11.708;2023-04-01T14:18:32;94424.75;;;10.54;93.66
1832;BME280;1680;48.106;11.708;2023-04-01T14:21:12;94421.78;;;10.46;94.40
1832;BME280;1680;48.106;11.708;2023-04-01T14:23:52;94424.59;;;10.39;94.88
1832;BME280;1680;48.106;11.708;2023-04-01T14:26:33;94416.59;;;10.24;95.94
1832;BME280;1680;48.106;11.708;2023-04-01T14:29:16;94425.31;;;10.30;98.44
1832;BME280;1680;48.106;11.708;2023-04-01T14:31:54;94428.34;;;10.22;99.36
1832;BME280;1680;48.106;11.708;2023-04-01T14:34:38;94421.31;;;10.27;100.00
1832;BME280;1680;48.106;11.708;2023-04-01T14:37:17;94414.69;;;10.20;100.00
1832;BME280;1680;48.106;11.708;2023-04-01T14:40:20;94424.00;;;10.32;100.00
1832;BME280;1680;48.106;11.708;2023-04-01T14:43:01;94422.22;;;10.38;100.00
1832;BME280;1680;48.106;11.708;2023-04-01T14:46:06;94434.53;;;10.37;99.01
1832;BME280;1680;48.106;11.708;2023-04-01T14:48:38;94422.06;;;10.49;98.73
1832;BME280;1680;48.106;11.708;2023-04-01T14:51:13;94428.28;;;10.69;99.41
1832;BME280;1680;48.106;11.708;2023-04-01T14:53:49;94422.88;;;10.81;99.17
1832;BME280;1680;48.106;11.708;2023-04-01T14:56:36;94430.66;;;10.71;97.64
1832;BME280;1680;48.106;11.708;2023-04-01T14:59:10;94421.50;;;10.73;97.63
1832;BME280;1680;48.106;11.708;2023-04-01T15:01:55;94434.69;;;10.52;100.00
1832;BME280;1680;48.106;11.708;2023-04-01T15:07:43;94438.25;;;10.41;99.49
1832;BME280;1680;48.106;11.708;2023-04-01T15:10:30;94428.00;;;10.40;100.00
1832;BME280;1680;48.106;11.708;2023-04-01T15:13:09;94438.19;;;10.36;100.00
1832;BME280;1680;48.106;11.708;2023-04-01T15:15:52;94439.94;;;10.52;100.00